createdAt,value
2023-05-19T00:04:17.064Z,86.40
2023-05-19T00:09:19.506Z,86.40
2023-05-19T00:14:21.777Z,86.40
2023-05-19T00:19:26.794Z,86.30
2023-05-19T00:24:29.008Z,86.50
2023-05-19T00:29:31.047Z,86.30
2023-05-19T00:34:33.547Z,86.50
2023-05-19T00:39:35.655Z,86.20
2023-05-19T00:44:41.563Z,86.30
2023-05-19T00:49:43.683Z,86.50
2023-05-19T00:54:46.477Z,86.40
2023-05-19T00:59:51.658Z,86.50
2023-05-19T01:04:55.544Z,86.40
2023-05-19T01:09:58.133Z,86.50
2023-05-19T01:15:01.243Z,86.50
2023-05-19T01:20:16.189Z,86.50
2023-05-19T01:25:30.817Z,86.60
2023-05-19T01:30:33.448Z,86.70
2023-05-19T01:35:37.842Z,86.50
2023-05-19T01:40:41.853Z,86.60
2023-05-19T01:45:44.894Z,86.60
2023-05-19T01:50:47.273Z,86.70
2023-05-19T01:55:54.631Z,86.60
2023-05-19T02:01:15.783Z,86.70
2023-05-19T02:06:46.196Z,86.80
2023-05-19T02:11:51.196Z,86.80
2023-05-19T02:16:54.236Z,86.70
2023-05-19T02:21:56.567Z,86.70
2023-05-19T02:26:58.601Z,86.70
2023-05-19T02:32:02.186Z,86.80
2023-05-19T02:37:04.470Z,86.90
2023-05-19T02:42:06.837Z,86.90
2023-05-19T02:47:08.996Z,86.90
2023-05-19T02:52:12.222Z,86.80
2023-05-19T02:57:14.926Z,87.00
2023-05-19T03:02:17.002Z,86.80
2023-05-19T03:07:24.977Z,86.80
2023-05-19T03:12:27.150Z,86.90
2023-05-19T03:17:33.871Z,86.90
2023-05-19T03:22:36.107Z,87.00
2023-05-19T03:27:38.296Z,86.90
2023-05-19T03:32:41.932Z,87.00
2023-05-19T03:37:44.418Z,86.90
2023-05-19T03:42:46.931Z,86.80
2023-05-19T03:47:49.140Z,86.80
2023-05-19T03:53:14.033Z,86.90
2023-05-19T03:58:16.831Z,87.00
2023-05-19T04:03:19.084Z,86.90
2023-05-19T04:08:21.353Z,87.00
2023-05-19T04:13:23.457Z,86.90
2023-05-19T04:18:28.903Z,86.90
2023-05-19T04:23:31.799Z,86.90
2023-05-19T04:28:36.786Z,87.00
2023-05-19T04:33:39.406Z,86.80
2023-05-19T04:38:41.729Z,87.00
2023-05-19T04:43:48.553Z,86.90
2023-05-19T04:48:50.798Z,87.00
2023-05-19T04:53:54.293Z,87.00
2023-05-19T04:58:56.738Z,87.10
2023-05-19T05:04:01.230Z,87.10
2023-05-19T05:09:04.434Z,87.00
2023-05-19T05:14:07.772Z,87.10
2023-05-19T05:19:10.826Z,87.10
2023-05-19T05:24:17.075Z,87.30
2023-05-19T05:29:26.016Z,87.30
2023-05-19T05:34:29.742Z,87.40
2023-05-19T05:39:38.103Z,87.50
2023-05-19T05:44:41.130Z,87.40
2023-05-19T05:49:48.503Z,87.40
2023-05-19T05:54:52.568Z,87.70
2023-05-19T05:59:56.445Z,87.70
2023-05-19T06:04:59.329Z,87.70
2023-05-19T06:10:04.735Z,87.70
2023-05-19T06:15:08.811Z,87.80
2023-05-19T06:20:23.166Z,88.10
2023-05-19T06:25:27.123Z,88.10
2023-05-19T06:30:31.389Z,88.00
2023-05-19T06:35:48.341Z,88.20
2023-05-19T06:40:51.685Z,88.30
2023-05-19T06:45:54.372Z,88.30
2023-05-19T06:50:58.261Z,88.40
2023-05-19T06:56:03.172Z,88.70
2023-05-19T07:01:09.475Z,88.90
2023-05-19T07:06:20.191Z,88.70
2023-05-19T07:11:23.658Z,89.00
2023-05-19T07:16:28.071Z,89.10
2023-05-19T07:21:31.596Z,89.20
2023-05-19T07:26:34.428Z,89.30
2023-05-19T07:31:36.744Z,89.30
2023-05-19T07:36:39.285Z,89.40
2023-05-19T07:41:41.672Z,89.70
2023-05-19T07:46:43.846Z,89.60
2023-05-19T07:51:46.320Z,89.80
2023-05-19T07:56:48.354Z,90.00
2023-05-19T08:01:50.366Z,90.00
2023-05-19T08:06:53.049Z,90.10
2023-05-19T08:12:06.644Z,90.10
2023-05-19T08:17:08.704Z,90.30
2023-05-19T08:22:10.589Z,90.30
2023-05-19T08:27:12.471Z,90.30
2023-05-19T08:32:14.316Z,90.40
2023-05-19T08:37:16.521Z,90.50
2023-05-19T08:42:18.376Z,90.50
2023-05-19T08:47:20.689Z,90.60
2023-05-19T08:52:26.794Z,90.50
2023-05-19T08:57:29.472Z,90.60
2023-05-19T09:02:40.354Z,90.60
2023-05-19T09:07:48.381Z,90.70
2023-05-19T09:12:51.471Z,90.80
2023-05-19T09:18:10.102Z,90.80
2023-05-19T09:23:16.991Z,90.90
2023-05-19T09:28:27.223Z,91.00
2023-05-19T09:33:29.815Z,91.00
2023-05-19T09:38:32.120Z,91.00
2023-05-19T09:43:34.822Z,91.10
2023-05-19T09:48:37.438Z,91.10
2023-05-19T09:53:39.845Z,91.20
2023-05-19T09:58:45.882Z,91.30
2023-05-19T10:03:48.001Z,91.30
2023-05-19T10:08:51.833Z,91.30
2023-05-19T10:13:53.857Z,91.10
2023-05-19T10:18:57.503Z,91.10
2023-05-19T10:23:59.406Z,91.00
2023-05-19T10:29:02.906Z,91.00
2023-05-19T10:34:33.779Z,90.90
2023-05-19T10:39:36.288Z,91.00
2023-05-19T10:44:41.232Z,91.10
2023-05-19T10:49:43.292Z,91.10
2023-05-19T10:54:47.972Z,91.00
2023-05-19T10:59:49.988Z,91.00
2023-05-19T11:04:52.521Z,91.10
2023-05-19T11:09:54.890Z,91.10
2023-05-19T11:14:59.366Z,91.00
2023-05-19T11:20:01.425Z,91.30
2023-05-19T11:25:04.251Z,91.40
2023-05-19T11:30:09.569Z,91.50
2023-05-19T11:35:11.774Z,91.50
2023-05-19T11:40:15.932Z,91.50
2023-05-19T11:45:17.929Z,91.60
2023-05-19T11:50:20.746Z,91.50
2023-05-19T11:55:23.302Z,91.40
2023-05-19T12:00:26.720Z,91.50
2023-05-19T12:05:32.458Z,91.70
2023-05-19T12:10:41.264Z,91.70
2023-05-19T12:15:46.324Z,91.80
2023-05-19T12:20:48.514Z,91.90
2023-05-19T12:25:50.822Z,91.80
2023-05-19T12:30:53.964Z,91.90
2023-05-19T12:35:56.349Z,91.90
2023-05-19T12:41:01.439Z,91.80
2023-05-19T12:46:13.292Z,91.90
2023-05-19T12:51:19.750Z,91.90
2023-05-19T12:56:27.008Z,91.80
2023-05-19T13:01:36.276Z,91.80
2023-05-19T13:06:38.176Z,91.80
2023-05-19T13:11:40.851Z,91.80
2023-05-19T13:16:42.896Z,91.80
2023-05-19T13:21:47.489Z,91.90
2023-05-19T13:26:49.654Z,91.80
2023-05-19T13:31:51.779Z,91.70
2023-05-19T13:36:53.786Z,91.60
2023-05-19T13:41:58.313Z,91.40
2023-05-19T13:47:00.644Z,91.30
2023-05-19T13:52:02.755Z,91.30
2023-05-19T13:57:06.165Z,91.20
2023-05-19T14:02:09.096Z,91.20
2023-05-19T14:07:11.081Z,91.20
2023-05-19T14:12:13.905Z,91.10
2023-05-19T14:17:15.802Z,91.10
2023-05-19T14:22:18.219Z,91.10
2023-05-19T14:27:20.177Z,91.10
2023-05-19T14:32:22.037Z,91.10
2023-05-19T14:37:24.303Z,91.10
2023-05-19T14:42:26.655Z,91.00
2023-05-19T14:47:28.701Z,91.00
2023-05-19T14:52:30.807Z,91.00
2023-05-19T14:57:32.885Z,91.00
2023-05-19T15:02:35.054Z,91.00
2023-05-19T15:07:37.056Z,90.90
2023-05-19T15:12:39.001Z,90.90
2023-05-19T15:17:41.086Z,90.90
2023-05-19T15:22:43.217Z,90.80
2023-05-19T15:27:45.270Z,90.80
2023-05-19T15:32:48.641Z,90.70
2023-05-19T15:37:50.876Z,90.70
2023-05-19T15:42:52.792Z,91.00
2023-05-19T15:47:56.038Z,90.60
2023-05-19T15:52:58.110Z,90.60
2023-05-19T15:58:00.150Z,90.60
2023-05-19T16:03:02.328Z,90.50
2023-05-19T16:08:05.959Z,90.50
2023-05-19T16:13:09.867Z,90.40
2023-05-19T16:18:11.961Z,90.40
2023-05-19T16:23:14.064Z,90.40
2023-05-19T16:28:16.179Z,90.40
2023-05-19T16:33:18.257Z,90.40
2023-05-19T16:38:20.246Z,90.40
2023-05-19T16:43:22.150Z,90.40
2023-05-19T16:48:24.403Z,90.30
2023-05-19T16:53:26.419Z,90.30
2023-05-19T16:58:30.313Z,90.20
2023-05-19T17:03:33.076Z,90.20
2023-05-19T17:08:35.089Z,90.20
2023-05-19T17:13:37.358Z,90.20
2023-05-19T17:18:39.403Z,90.20
2023-05-19T17:23:41.612Z,90.20
2023-05-19T17:28:43.620Z,90.20
2023-05-19T17:33:46.132Z,90.20
2023-05-19T17:38:47.954Z,90.20
2023-05-19T17:43:49.847Z,90.20
2023-05-19T17:48:51.734Z,90.20
2023-05-19T17:53:53.919Z,90.20
2023-05-19T17:58:56.077Z,90.20
2023-05-19T18:03:58.509Z,90.20
2023-05-19T18:09:03.302Z,90.20
2023-05-19T18:14:05.315Z,90.20
2023-05-19T18:19:07.244Z,90.20
2023-05-19T18:24:09.172Z,90.20
2023-05-19T18:29:11.440Z,90.20
2023-05-19T18:34:14.038Z,90.10
2023-05-19T18:39:16.111Z,90.10
2023-05-19T18:44:18.097Z,90.20
2023-05-19T18:49:20.080Z,90.10
2023-05-19T18:54:22.428Z,90.20
2023-05-19T18:59:25.825Z,90.20
2023-05-19T19:04:27.752Z,90.20
2023-05-19T19:09:29.750Z,90.10
2023-05-19T19:14:31.712Z,90.10
2023-05-19T19:19:33.616Z,90.20
2023-05-19T19:24:35.857Z,90.20
2023-05-19T19:29:37.869Z,90.20
2023-05-19T19:34:39.707Z,90.20
2023-05-19T19:39:41.588Z,90.30
2023-05-19T19:44:43.471Z,90.20
2023-05-19T19:49:46.125Z,90.20
2023-05-19T19:54:48.260Z,90.30
2023-05-19T19:59:56.564Z,90.30
2023-05-19T20:04:58.410Z,90.20
2023-05-19T20:10:00.649Z,90.30
2023-05-19T20:15:02.580Z,90.20
2023-05-19T20:20:09.812Z,90.20
2023-05-19T20:25:12.145Z,90.20
2023-05-19T20:30:14.016Z,90.20
2023-05-19T20:35:16.296Z,90.30
2023-05-19T20:40:18.722Z,90.30
2023-05-19T20:45:21.262Z,90.30
2023-05-19T20:50:23.265Z,90.30
2023-05-19T20:55:25.140Z,90.30
2023-05-19T21:00:28.791Z,90.30
2023-05-19T21:05:32.493Z,90.30
2023-05-19T21:10:34.795Z,90.30
2023-05-19T21:15:36.885Z,90.20
2023-05-19T21:20:39.246Z,90.30
2023-05-19T21:25:41.763Z,90.30
2023-05-19T21:30:48.089Z,90.30
2023-05-19T21:35:50.120Z,90.30
2023-05-19T21:40:53.168Z,90.30
2023-05-19T21:45:55.389Z,90.30
2023-05-19T21:50:57.757Z,90.30
2023-05-19T21:56:00.046Z,90.20
2023-05-19T22:01:02.110Z,90.20
2023-05-19T22:06:06.362Z,90.20
2023-05-19T22:11:09.041Z,90.20
2023-05-19T22:16:12.165Z,90.20
2023-05-19T22:27:57.968Z,90.20
2023-05-19T22:33:19.542Z,90.20
2023-05-19T23:07:13.458Z,90.30
2023-05-19T23:12:24.626Z,90.30
2023-05-19T23:17:57.355Z,90.30
2023-05-19T23:23:27.149Z,90.30
2023-05-19T23:28:45.158Z,90.30
2023-05-19T23:34:19.093Z,90.30
2023-05-19T23:39:35.961Z,90.30
2023-05-19T23:44:54.885Z,90.40
2023-05-19T23:50:21.555Z,90.40
2023-05-19T23:55:23.631Z,90.30
